Time;durP1;ratioP1;P1;durP2;ratioP2;P2;SDS_P1;SDS_P2;PMS_P1;PMS_P2;Temp;Humidity;BMP_temperature;BMP_pressure;BME280_temperature;BME280_humidity;BME280_pressure;Samples;Min_cycle;Max_cycle;Signal;HPM_P1;HPM_P2
2022/02/04 00:08:46;;;;;;;16.58;12.55;;;15.50;75.20;;;;;;4197747;28;20489;-59
2022/02/04 00:22:22;;;;;;;19.58;14.13;;;15.40;76.00;;;;;;4198246;28;20090;-59
2022/02/04 00:24:42;;;;;;;25.75;15.80;;;15.50;76.10;;;;;;4197551;28;20155;-60
2022/02/04 00:27:09;;;;;;;20.92;15.55;;;15.50;76.00;;;;;;4198372;28;20056;-60
2022/02/04 00:29:39;;;;;;;21.98;14.05;;;15.50;75.80;;;;;;4198315;28;20052;-58
2022/02/04 00:32:05;;;;;;;20.50;14.68;;;15.60;75.60;;;;;;4198225;28;20063;-60
2022/02/04 00:43:24;;;;;;;20.42;14.65;;;15.60;75.20;;;;;;4615734;23;20134;-60
2022/02/04 00:46:11;;;;;;;20.52;15.00;;;15.60;75.20;;;;;;4763161;23;20050;-63
2022/02/04 00:49:13;;;;;;;19.95;14.07;;;15.60;75.30;;;;;;4035416;29;20064;-60
2022/02/04 00:51:43;;;;;;;23.52;15.80;;;15.60;75.20;;;;;;4037341;29;20053;-60
2022/02/04 00:54:17;;;;;;;24.15;15.27;;;15.60;75.20;;;;;;4052696;29;20110;-60
2022/02/04 00:56:48;;;;;;;24.55;15.77;;;15.60;75.20;;;;;;4066292;29;20060;-60
2022/02/04 01:26:08;;;;;;;22.20;14.48;;;15.70;74.90;;;;;;4047165;29;20107;-59
2022/02/04 01:28:31;;;;;;;22.02;15.27;;;15.90;74.40;;;;;;4052111;29;20075;-60
2022/02/04 01:30:56;;;;;;;20.40;15.07;;;15.90;74.00;;;;;;4052570;29;20052;-60
2022/02/04 01:33:18;;;;;;;24.88;15.85;;;15.90;73.80;;;;;;4052665;29;20517;-60
2022/02/04 01:35:40;;;;;;;21.80;15.50;;;15.90;73.60;;;;;;4054034;29;20060;-60
2022/02/04 01:38:02;;;;;;;20.80;13.98;;;16.00;73.50;;;;;;4068209;29;20500;-60
2022/02/04 01:40:24;;;;;;;20.17;12.63;;;16.00;74.40;;;;;;4068242;29;20056;-60
2022/02/04 01:42:46;;;;;;;22.25;14.18;;;16.10;73.10;;;;;;4067773;29;20107;-60
2022/02/04 01:45:09;;;;;;;21.05;13.82;;;16.10;73.00;;;;;;4060387;29;20140;-60
2022/02/04 01:47:33;;;;;;;20.38;14.02;;;16.10;72.70;;;;;;4067348;29;20146;-60
2022/02/04 01:49:55;;;;;;;19.77;13.55;;;16.10;72.50;;;;;;4068065;29;20527;-60
2022/02/04 01:52:17;;;;;;;22.33;14.45;;;16.10;72.60;;;;;;4067925;29;20060;-60
2022/02/04 01:54:40;;;;;;;20.30;12.95;;;16.10;73.40;;;;;;4060027;29;20541;-60
2022/02/04 01:57:01;;;;;;;20.60;14.32;;;16.10;72.70;;;;;;4066327;29;20116;-60
2022/02/04 01:59:24;;;;;;;20.80;14.00;;;16.00;72.80;;;;;;4067193;29;20052;-60
2022/02/04 02:01:46;;;;;;;23.52;14.40;;;16.00;72.90;;;;;;4067934;29;20063;-61
2022/02/04 02:04:12;;;;;;;22.02;14.50;;;16.00;73.00;;;;;;4046010;29;20091;-60
2022/02/04 02:06:47;;;;;;;20.55;14.38;;;16.10;72.80;;;;;;4061768;29;20059;-60
2022/02/04 02:09:09;;;;;;;20.25;13.25;;;16.10;72.70;;;;;;4052243;29;20095;-60
2022/02/04 02:11:31;;;;;;;24.00;14.73;;;16.10;73.70;;;;;;4052748;29;20108;-60
2022/02/04 02:13:54;;;;;;;23.52;14.30;;;16.00;72.70;;;;;;4055571;29;20147;-60
2022/02/04 02:16:47;;;;;;;18.38;13.70;;;16.00;72.80;;;;;;4067235;29;20107;-60
2022/02/04 02:35:30;;;;;;;21.38;13.75;;;16.00;72.70;;;;;;4032677;29;20080;-60
2022/02/04 02:43:24;;;;;;;18.38;13.02;;;16.00;72.90;;;;;;4069786;29;20189;-60
2022/02/04 02:46:17;;;;;;;18.77;12.13;;;15.90;73.00;;;;;;4054631;29;20075;-60
2022/02/04 02:48:59;;;;;;;20.42;12.93;;;15.90;73.10;;;;;;4055133;29;20061;-60
2022/02/04 02:54:08;;;;;;;19.52;13.48;;;15.90;73.50;;;;;;4061518;29;20135;-59
2022/02/04 02:57:01;;;;;;;20.10;13.93;;;15.90;73.20;;;;;;4054923;29;20770;-60
2022/02/04 02:59:26;;;;;;;19.98;12.77;;;16.00;73.00;;;;;;4057035;29;20072;-60
2022/02/04 03:01:50;;;;;;;19.90;13.18;;;16.00;72.90;;;;;;4069571;29;20052;-60
2022/02/04 03:04:15;;;;;;;19.92;12.85;;;16.10;72.60;;;;;;4059966;29;20123;-60
2022/02/04 03:06:36;;;;;;;21.08;12.98;;;16.10;72.40;;;;;;4039204;29;20092;-60
2022/02/04 03:09:00;;;;;;;18.30;12.57;;;16.10;72.20;;;;;;4039191;29;20545;-60
2022/02/04 03:11:21;;;;;;;19.50;13.35;;;16.10;72.20;;;;;;4039122;29;20059;-60
2022/02/04 03:13:43;;;;;;;20.63;12.57;;;16.10;72.30;;;;;;4051931;29;20511;-60
2022/02/04 03:16:09;;;;;;;25.33;14.43;;;16.10;72.30;;;;;;4069741;29;20408;-60
2022/02/04 03:18:35;;;;;;;20.30;12.27;;;16.10;72.20;;;;;;4069778;29;20142;-59
2022/02/04 03:21:03;;;;;;;19.33;12.40;;;16.10;72.10;;;;;;4052236;29;20071;-60
2022/02/04 03:23:28;;;;;;;18.85;13.13;;;16.20;72.00;;;;;;4057291;29;20052;-60
2022/02/04 03:25:57;;;;;;;19.40;12.95;;;16.20;72.00;;;;;;4069655;29;20060;-60
2022/02/04 03:28:28;;;;;;;17.25;11.85;;;16.10;71.90;;;;;;4070089;29;20062;-60
2022/02/04 03:30:52;;;;;;;16.55;11.77;;;16.10;71.90;;;;;;4054689;29;20414;-60
2022/02/04 03:33:17;;;;;;;15.98;11.07;;;16.10;72.00;;;;;;4068490;29;20062;-60
2022/02/04 03:35:39;;;;;;;19.05;11.13;;;16.10;72.10;;;;;;4069959;29;20088;-60
2022/02/04 03:38:02;;;;;;;21.77;13.30;;;16.10;72.20;;;;;;4069822;29;20063;-59
2022/02/04 03:40:24;;;;;;;18.15;11.27;;;16.10;73.00;;;;;;4055072;29;20460;-60
2022/02/04 03:42:49;;;;;;;19.88;13.35;;;16.20;72.00;;;;;;4065423;29;20082;-60
2022/02/04 03:45:11;;;;;;;18.88;12.35;;;16.20;71.60;;;;;;4069751;29;20701;-60
2022/02/04 03:47:33;;;;;;;17.73;12.35;;;16.20;71.40;;;;;;4068787;29;20125;-60
2022/02/04 03:49:55;;;;;;;19.98;13.55;;;16.30;71.40;;;;;;4058198;29;20135;-60
2022/02/04 03:52:17;;;;;;;20.15;13.35;;;16.30;71.50;;;;;;4063098;29;20538;-59
2022/02/04 03:54:39;;;;;;;21.77;14.48;;;16.30;71.40;;;;;;4069048;29;20075;-62
2022/02/04 03:57:00;;;;;;;22.15;13.23;;;16.20;71.50;;;;;;4069338;29;20052;-66
2022/02/04 03:59:26;;;;;;;21.65;12.27;;;16.20;71.50;;;;;;4060294;29;20060;-62
2022/02/04 04:01:48;;;;;;;21.50;13.32;;;16.20;71.50;;;;;;4058951;29;20052;-65
2022/02/04 04:04:10;;;;;;;22.92;14.38;;;16.20;71.70;;;;;;4068655;29;20078;-62
2022/02/04 04:06:32;;;;;;;21.38;13.85;;;16.20;71.70;;;;;;4068879;29;20060;-62
2022/02/04 04:08:55;;;;;;;21.95;13.50;;;16.10;72.60;;;;;;4063891;29;20067;-61
2022/02/04 04:11:17;;;;;;;22.33;13.48;;;16.10;71.70;;;;;;4057150;29;20059;-60
2022/02/04 04:13:39;;;;;;;22.10;14.70;;;16.10;71.90;;;;;;4048313;29;20477;-60
2022/02/04 04:16:02;;;;;;;22.95;14.30;;;16.10;72.00;;;;;;4053756;29;20487;-60
2022/02/04 04:18:25;;;;;;;23.98;13.88;;;16.10;72.00;;;;;;4056184;29;20052;-60
2022/02/04 04:20:47;;;;;;;18.75;12.70;;;16.10;71.90;;;;;;4068356;29;20060;-60
2022/02/04 04:23:09;;;;;;;22.75;14.65;;;16.10;72.10;;;;;;4037727;29;20063;-60
2022/02/04 04:25:31;;;;;;;21.85;14.75;;;16.10;72.00;;;;;;4037565;29;20156;-60
2022/02/04 04:27:54;;;;;;;21.05;13.85;;;16.10;72.10;;;;;;4037602;29;20064;-60
2022/02/04 04:30:18;;;;;;;20.55;13.68;;;16.10;72.20;;;;;;4037637;29;20516;-60
2022/02/04 04:32:42;;;;;;;21.33;14.10;;;16.10;72.30;;;;;;4054285;29;20060;-60
2022/02/04 04:35:06;;;;;;;19.65;12.20;;;16.10;72.00;;;;;;4052609;29;20064;-59
2022/02/04 04:37:28;;;;;;;21.63;14.60;;;16.30;71.60;;;;;;4052855;29;20580;-59
2022/02/04 04:40:01;;;;;;;23.15;14.05;;;16.40;71.20;;;;;;4037556;29;20060;-59
2022/02/04 04:42:33;;;;;;;22.08;13.60;;;16.40;70.70;;;;;;4060746;29;20060;-60
2022/02/04 04:45:14;;;;;;;16.88;12.25;;;16.50;71.20;;;;;;4068596;29;20056;-59
2022/02/04 05:30:12;;;;;;;16.60;10.23;;;16.50;70.70;;;;;;4068227;29;20083;-59
2022/02/04 05:32:34;;;;;;;15.90;10.52;;;16.50;70.40;;;;;;4037064;29;20052;-59
2022/02/04 05:34:56;;;;;;;14.55;9.10;;;16.50;70.30;;;;;;4037148;29;20494;-59
2022/02/04 05:37:21;;;;;;;13.40;9.43;;;16.50;70.30;;;;;;4036981;29;20055;-59
2022/02/04 05:39:52;;;;;;;15.65;10.57;;;16.50;70.10;;;;;;4052541;29;20052;-60
2022/02/04 05:42:20;;;;;;;17.48;9.10;;;16.60;69.90;;;;;;4036999;29;20073;-60
2022/02/04 05:44:44;;;;;;;15.45;8.68;;;16.60;69.70;;;;;;4036992;29;20108;-60
2022/02/04 05:47:13;;;;;;;13.00;8.43;;;16.60;69.60;;;;;;4036639;29;20068;-60
2022/02/04 05:49:37;;;;;;;16.80;10.75;;;16.60;69.70;;;;;;4037004;29;20065;-59
2022/02/04 05:52:08;;;;;;;12.27;8.82;;;16.60;69.70;;;;;;4064288;29;20086;-60
2022/02/04 05:54:44;;;;;;;15.23;10.07;;;16.50;69.80;;;;;;4067438;29;20072;-60
2022/02/04 05:57:13;;;;;;;16.42;10.35;;;16.50;70.00;;;;;;4067812;29;20441;-59
2022/02/04 05:59:53;;;;;;;13.50;9.13;;;16.50;70.00;;;;;;4036940;29;20063;-59
2022/02/04 06:02:24;;;;;;;12.63;9.07;;;16.40;70.10;;;;;;4052213;29;20056;-59
2022/02/04 06:04:54;;;;;;;;;;;16.40;70.30;;;;;;4052695;29;20063;-60
2022/02/04 06:07:26;;;;;;;13.98;8.40;;;16.40;71.30;;;;;;4052130;29;19931;-59
2022/02/04 06:10:22;;;;;;;12.63;9.60;;;16.30;70.80;;;;;;4066883;29;20522;-60
2022/02/04 06:23:38;;;;;;;12.60;8.43;;;16.40;70.10;;;;;;4067625;29;20052;-60
2022/02/04 06:26:02;;;;;;;16.17;8.45;;;16.40;70.30;;;;;;4067455;29;20162;-59
2022/02/04 06:28:25;;;;;;;14.48;9.40;;;16.50;70.40;;;;;;4058031;29;20060;-60
2022/02/04 06:30:47;;;;;;;14.73;8.88;;;16.40;70.40;;;;;;4059923;29;20135;-59
2022/02/04 06:33:09;;;;;;;12.95;7.90;;;16.40;70.40;;;;;;4067534;29;20074;-59
2022/02/04 06:35:34;;;;;;;11.95;8.60;;;16.50;71.40;;;;;;4067727;29;20060;-60
2022/02/04 06:37:56;;;;;;;11.07;8.00;;;16.50;70.40;;;;;;4059360;29;20068;-60
2022/02/04 06:40:18;;;;;;;13.10;8.43;;;16.50;70.10;;;;;;4057769;29;20079;-59
2022/02/04 06:42:42;;;;;;;10.63;6.53;;;16.60;70.00;;;;;;4067456;29;20084;-60
2022/02/04 06:45:05;;;;;;;11.27;7.25;;;16.60;69.80;;;;;;4053271;29;20427;-60
2022/02/04 06:47:28;;;;;;;10.07;7.90;;;16.60;69.60;;;;;;4062990;29;20064;-60
2022/02/04 06:49:50;;;;;;;15.75;7.28;;;16.70;69.50;;;;;;4054217;29;20404;-60
2022/02/04 06:52:13;;;;;;;11.32;7.18;;;16.70;69.20;;;;;;4067421;29;20147;-60
2022/02/04 06:54:35;;;;;;;10.15;7.07;;;16.70;69.00;;;;;;4067564;29;20064;-59
2022/02/04 06:56:57;;;;;;;14.57;6.82;;;16.70;69.10;;;;;;4065446;29;20055;-60
2022/02/04 06:59:21;;;;;;;11.60;7.80;;;16.80;69.10;;;;;;4066447;29;20088;-60
2022/02/04 07:01:42;;;;;;;10.25;6.18;;;16.80;68.70;;;;;;4052000;29;20551;-60
2022/02/04 07:04:07;;;;;;;12.52;7.45;;;16.90;68.40;;;;;;4051811;29;20052;-60
2022/02/04 07:06:29;;;;;;;11.70;7.93;;;16.90;68.20;;;;;;4060630;29;20407;-59
2022/02/04 07:09:10;;;;;;;10.05;7.13;;;16.90;68.10;;;;;;4067247;29;20484;-60
2022/02/04 07:11:52;;;;;;;8.77;6.30;;;17.00;68.10;;;;;;4035972;29;20052;-60
2022/02/04 07:14:22;;;;;;;12.30;7.32;;;16.90;68.10;;;;;;4036426;29;20057;-60
2022/02/04 07:17:07;;;;;;;10.57;7.32;;;16.80;68.40;;;;;;4060681;29;20068;-60
2022/02/04 07:19:48;;;;;;;12.60;7.75;;;16.80;69.50;;;;;;4063070;29;20429;-59
2022/02/04 07:22:11;;;;;;;12.40;7.45;;;16.80;70.20;;;;;;4039168;29;20058;-58
2022/02/04 07:24:33;;;;;;;11.65;6.85;;;16.90;69.60;;;;;;4028480;29;20064;-59
2022/02/04 07:26:55;;;;;;;15.88;8.10;;;16.90;69.20;;;;;;4054021;29;20081;-59
2022/02/04 07:29:18;;;;;;;10.88;7.63;;;16.90;69.20;;;;;;4053624;29;20112;-59
2022/02/04 07:31:41;;;;;;;16.33;7.60;;;17.00;68.90;;;;;;4053568;29;20053;-59
2022/02/04 07:34:15;;;;;;;11.23;6.28;;;17.00;68.70;;;;;;4054011;29;20057;-59
2022/02/04 07:41:56;;;;;;;11.07;7.43;;;16.90;68.60;;;;;;4069302;28;20071;-59
2022/02/04 07:44:19;;;;;;;11.90;6.60;;;16.90;68.80;;;;;;4059933;29;20053;-59
2022/02/04 07:46:41;;;;;;;10.60;7.38;;;16.80;69.10;;;;;;4050937;29;20059;-59
2022/02/04 07:49:04;;;;;;;8.75;6.28;;;16.70;69.60;;;;;;4032284;29;20167;-59
2022/02/04 07:51:27;;;;;;;10.02;6.35;;;16.70;69.90;;;;;;4035807;29;20143;-59
2022/02/04 07:53:49;;;;;;;12.75;7.18;;;16.70;69.80;;;;;;4036102;29;20084;-59
2022/02/04 07:56:11;;;;;;;8.55;5.93;;;16.70;69.70;;;;;;4036012;29;20061;-59
2022/02/04 07:58:33;;;;;;;13.57;7.60;;;16.80;69.60;;;;;;4035866;29;20107;-59
2022/02/04 08:00:56;;;;;;;11.60;7.18;;;16.80;69.70;;;;;;4036306;29;20997;-59
2022/02/04 08:03:32;;;;;;;9.85;6.80;;;16.80;69.60;;;;;;4035760;29;20057;-59
2022/02/04 08:05:59;;;;;;;9.23;6.00;;;16.80;69.60;;;;;;4036302;29;20417;-59
2022/02/04 08:08:28;;;;;;;14.10;7.60;;;16.80;69.60;;;;;;4035932;29;20497;-59
2022/02/04 08:11:05;;;;;;;10.00;6.78;;;16.80;69.60;;;;;;4036392;29;20064;-60
2022/02/04 08:13:44;;;;;;;10.20;6.93;;;16.70;69.50;;;;;;4035393;29;20754;-59
2022/02/04 08:16:34;;;;;;;7.18;6.47;;;16.80;69.50;;;;;;4036142;29;20059;-59
2022/02/04 08:19:22;;;;;;;9.00;5.82;;;16.80;69.50;;;;;;4035654;29;20500;-59
2022/02/04 08:22:06;;;;;;;8.80;6.45;;;16.70;69.50;;;;;;4035265;29;20061;-59
2022/02/04 08:24:44;;;;;;;10.18;5.63;;;16.80;69.60;;;;;;4036662;29;20057;-59
2022/02/04 08:30:09;;;;;;;6.07;5.13;;;16.80;69.00;;;;;;4027052;29;20045;-59
2022/02/04 08:32:43;;;;;;;6.03;5.10;;;16.90;69.00;;;;;;4035126;29;20093;-59
2022/02/04 08:35:24;;;;;;;5.70;5.10;;;16.90;69.00;;;;;;4035584;29;20053;-59
2022/02/04 08:51:24;;;;;;;5.78;4.63;;;16.60;69.90;;;;;;4051069;29;20072;-60
2022/02/04 08:56:40;;;;;;;5.18;4.70;;;16.60;69.80;;;;;;4050653;29;20067;-59
2022/02/04 08:59:09;;;;;;;7.57;4.00;;;16.60;69.70;;;;;;4050369;29;20060;-55
2022/02/04 09:01:41;;;;;;;5.63;4.32;;;16.60;69.80;;;;;;4050528;29;20040;-59
2022/02/04 09:04:09;;;;;;;6.95;4.10;;;16.60;69.70;;;;;;4050724;29;20057;-59
2022/02/04 09:06:37;;;;;;;8.10;4.95;;;16.50;69.90;;;;;;4050458;29;20061;-59
2022/02/04 09:09:01;;;;;;;7.45;4.43;;;16.40;70.00;;;;;;4050487;29;20420;-59
2022/02/04 09:11:39;;;;;;;5.03;4.50;;;16.40;70.30;;;;;;4050757;29;20060;-59
2022/02/04 09:17:01;;;;;;;5.60;4.65;;;16.50;70.50;;;;;;4027102;29;20111;-59
2022/02/04 09:19:28;;;;;;;7.30;4.70;;;16.50;70.30;;;;;;4044392;29;20132;-59
2022/02/04 09:22:05;;;;;;;6.65;4.82;;;16.50;70.30;;;;;;4041309;29;63291;-59
2022/02/04 09:24:34;;;;;;;4.47;4.07;;;16.50;70.40;;;;;;4173222;27;1273820;-58
2022/02/04 09:26:56;;;;;;;5.72;4.45;;;16.50;70.20;;;;;;4191429;28;20124;-58
2022/02/04 09:29:19;;;;;;;6.90;4.10;;;16.50;70.60;;;;;;4191081;28;20132;-58
2022/02/04 09:31:42;;;;;;;5.90;5.20;;;16.50;70.80;;;;;;4192284;28;20087;-58
2022/02/04 09:34:04;;;;;;;6.90;4.30;;;16.50;70.60;;;;;;4192410;28;20435;-58
2022/02/04 09:36:27;;;;;;;7.60;4.90;;;16.40;70.60;;;;;;4192236;28;20068;-58
2022/02/04 09:38:49;;;;;;;7.13;4.38;;;16.40;70.70;;;;;;4191568;28;20388;-58
2022/02/04 09:41:13;;;;;;;6.78;4.60;;;16.40;71.70;;;;;;4192327;28;20061;-58
2022/02/04 09:43:36;;;;;;;8.05;4.88;;;16.40;70.90;;;;;;4192071;28;20056;-58
2022/02/04 09:46:00;;;;;;;5.18;4.68;;;16.40;70.90;;;;;;4191681;28;20065;-58
2022/02/04 09:48:22;;;;;;;7.30;5.07;;;16.40;71.00;;;;;;4174713;28;20089;-60
2022/02/04 09:50:48;;;;;;;6.05;3.97;;;16.40;71.00;;;;;;4175851;28;20057;-60
2022/02/04 10:04:46;;;;;;;8.73;5.03;;;16.20;71.70;;;;;;4186669;28;20056;-60
2022/02/04 10:07:33;;;;;;;5.55;4.13;;;16.20;71.90;;;;;;4181510;28;20063;-60
2022/02/04 10:12:51;;;;;;;5.75;4.45;;;16.20;71.90;;;;;;4165898;28;20064;-61
2022/02/04 10:15:24;;;;;;;4.50;4.10;;;16.30;71.80;;;;;;4184178;28;20052;-61
2022/02/04 10:18:01;;;;;;;5.03;4.40;;;16.30;71.80;;;;;;4181219;28;20049;-60
2022/02/04 10:20:25;;;;;;;4.88;4.32;;;16.30;71.80;;;;;;4175391;28;20424;-63
2022/02/04 10:22:49;;;;;;;4.65;4.20;;;16.30;71.80;;;;;;4183920;28;20111;-61
2022/02/04 10:25:12;;;;;;;5.40;4.90;;;16.30;71.50;;;;;;4179496;28;20084;-63
2022/02/04 10:27:55;;;;;;;6.78;4.63;;;16.30;72.30;;;;;;4175359;28;20084;-61
2022/02/04 10:30:19;;;;;;;3.85;3.53;;;16.30;71.50;;;;;;4183502;28;20056;-60
2022/02/04 10:32:45;;;;;;;3.80;3.50;;;16.30;71.50;;;;;;4190947;28;20067;-60
2022/02/04 10:35:13;;;;;;;5.10;4.35;;;16.40;71.00;;;;;;4168451;28;20058;-61
2022/02/04 10:37:38;;;;;;;5.57;4.60;;;16.40;70.30;;;;;;4170893;28;20112;-60
2022/02/04 10:40:09;;;;;;;5.40;4.55;;;16.30;69.80;;;;;;4171222;28;20056;-60
2022/02/04 10:42:39;;;;;;;5.88;3.67;;;16.30;69.60;;;;;;4172193;28;20081;-59
2022/02/04 10:48:04;;;;;;;4.05;3.65;;;16.30;69.40;;;;;;4175656;28;20072;-60
2022/02/04 10:53:33;;;;;;;6.65;4.28;;;16.20;69.40;;;;;;4164234;28;20076;-59
2022/02/04 10:56:14;;;;;;;6.68;4.38;;;16.10;69.60;;;;;;4171595;28;20529;-60
2022/02/04 10:58:59;;;;;;;4.28;3.70;;;16.10;69.70;;;;;;4164047;28;20069;-60
2022/02/04 11:01:33;;;;;;;8.05;3.90;;;16.10;69.60;;;;;;4164458;28;20138;-60
2022/02/04 11:04:01;;;;;;;4.70;3.13;;;16.10;69.60;;;;;;4179397;28;20142;-60
2022/02/04 11:06:33;;;;;;;5.63;3.65;;;16.10;70.40;;;;;;4177396;28;20057;-60
2022/02/04 11:09:11;;;;;;;7.90;3.83;;;16.00;69.60;;;;;;4163948;28;20477;-59
2022/02/04 11:11:52;;;;;;;5.97;4.03;;;16.00;69.70;;;;;;4171376;28;20057;-60
2022/02/04 11:52:44;;;;;;;3.75;3.33;;;15.90;69.00;;;;;;4173820;28;20049;-60
2022/02/04 11:55:31;;;;;;;5.35;3.67;;;15.90;69.20;;;;;;4176780;28;20527;-60
2022/02/04 11:57:57;;;;;;;8.93;3.38;;;15.80;69.30;;;;;;4190042;28;20059;-60
2022/02/04 12:00:23;;;;;;;6.55;4.38;;;15.80;69.60;;;;;;4190174;28;20059;-60
2022/02/04 12:02:49;;;;;;;6.40;3.55;;;15.80;70.10;;;;;;4174639;28;20391;-60
2022/02/04 12:05:31;;;;;;;7.70;3.55;;;15.90;70.10;;;;;;4175378;28;20121;-60
2022/02/04 12:08:05;;;;;;;10.40;3.83;;;16.00;69.70;;;;;;4188460;28;20641;-59
2022/02/04 12:10:28;;;;;;;4.53;3.08;;;16.10;69.40;;;;;;4180293;28;20099;-60
2022/02/04 12:13:12;;;;;;;5.57;3.22;;;16.20;68.90;;;;;;4182475;28;20048;-59
2022/02/04 12:16:04;;;;;;;6.45;3.28;;;16.20;68.50;;;;;;4177454;28;20109;-60
2022/02/04 12:18:59;;;;;;;4.78;2.90;;;16.20;68.30;;;;;;4174254;28;20045;-61
2022/02/04 12:21:22;;;;;;;6.43;2.97;;;16.20;68.30;;;;;;4173478;28;20130;-65
2022/02/04 12:23:49;;;;;;;2.42;2.22;;;16.20;68.30;;;;;;4174864;28;20059;-63
2022/02/04 12:26:20;;;;;;;4.20;2.40;;;16.20;69.30;;;;;;4189274;28;20049;-61
2022/02/04 12:28:44;;;;;;;4.10;2.55;;;16.20;68.40;;;;;;4179690;28;20045;-60
2022/02/04 12:31:07;;;;;;;3.30;2.40;;;16.10;68.60;;;;;;4188052;28;20044;-60
2022/02/04 12:33:31;;;;;;;4.93;3.25;;;16.10;68.90;;;;;;4187619;28;20049;-60
2022/02/04 12:35:53;;;;;;;6.47;2.88;;;16.10;69.80;;;;;;4173675;28;20072;-60
2022/02/04 12:38:18;;;;;;;4.15;2.47;;;16.10;68.80;;;;;;4173139;28;20107;-60
2022/02/04 12:40:41;;;;;;;5.55;2.75;;;16.20;68.80;;;;;;4150551;28;20045;-60
2022/02/04 12:43:03;;;;;;;3.25;1.83;;;16.20;68.80;;;;;;4183555;28;20076;-59
2022/02/04 12:45:29;;;;;;;6.97;2.60;;;16.10;68.60;;;;;;4181245;28;20110;-58
2022/02/04 12:47:53;;;;;;;4.28;2.22;;;16.20;68.60;;;;;;4189432;28;20045;-59
2022/02/04 12:50:15;;;;;;;3.75;1.90;;;16.20;68.70;;;;;;4185875;28;20123;-58
2022/02/04 12:52:44;;;;;;;2.00;1.60;;;16.20;68.70;;;;;;4177387;28;20052;-58
2022/02/04 12:55:10;;;;;;;2.90;2.00;;;16.30;68.60;;;;;;4185459;28;20053;-59
2022/02/04 12:57:38;;;;;;;3.58;1.83;;;16.30;68.20;;;;;;4172898;28;20057;-58
2022/02/04 13:00:08;;;;;;;4.13;2.13;;;16.40;67.90;;;;;;4173114;28;20053;-59
2022/02/04 13:07:55;;;;;;;6.45;1.67;;;16.50;67.40;;;;;;4143159;28;20158;-58
2022/02/04 13:10:22;;;;;;;4.28;1.73;;;16.50;67.20;;;;;;4189397;28;20136;-58
2022/02/04 13:12:55;;;;;;;5.32;2.05;;;16.50;67.20;;;;;;4162118;28;20049;-58
2022/02/04 13:15:18;;;;;;;6.75;2.20;;;16.60;67.10;;;;;;4172564;28;20056;-59
2022/02/04 13:17:40;;;;;;;4.80;1.98;;;16.50;67.10;;;;;;4173911;28;20053;-59
2022/02/04 13:20:03;;;;;;;2.95;1.90;;;16.50;67.20;;;;;;4174366;28;20077;-58
2022/02/04 13:22:27;;;;;;;4.15;1.83;;;16.50;67.50;;;;;;4173963;28;20385;-59
2022/02/04 13:25:05;;;;;;;2.05;1.70;;;16.40;67.60;;;;;;4173021;28;20225;-58
2022/02/04 13:27:28;;;;;;;8.80;1.70;;;16.30;67.70;;;;;;4186239;28;20044;-60
2022/02/04 13:29:52;;;;;;;1.77;1.60;;;16.30;68.10;;;;;;4173153;28;20060;-61
2022/02/04 13:32:22;;;;;;;1.40;1.30;;;16.30;68.20;;;;;;4182898;28;20075;-61
2022/02/04 13:34:44;;;;;;;3.60;1.52;;;16.20;68.50;;;;;;4188268;28;20052;-60
2022/02/04 13:37:13;;;;;;;1.23;1.13;;;16.10;68.80;;;;;;4184998;28;20388;-60
2022/02/04 13:39:51;;;;;;;2.88;1.42;;;16.10;69.10;;;;;;4177125;28;20492;-60
2022/02/04 13:42:21;;;;;;;3.75;1.73;;;16.20;70.10;;;;;;4174647;28;20087;-60
2022/02/04 13:44:52;;;;;;;1.33;0.63;;;16.20;69.00;;;;;;4182510;28;20159;-60
2022/02/04 13:47:24;;;;;;;3.13;0.80;;;16.30;68.50;;;;;;4184402;28;20052;-60
2022/02/04 13:50:18;;;;;;;4.13;2.20;;;16.40;67.80;;;;;;4179821;28;20080;-61
2022/02/04 13:55:32;;;;;;;3.05;0.90;;;16.40;67.70;;;;;;4177950;28;20989;-60
2022/02/04 13:58:16;;;;;;;1.50;0.30;;;16.30;67.60;;;;;;4172536;28;20060;-60
2022/02/04 14:00:50;;;;;;;2.28;0.50;;;16.30;66.60;;;;;;4172443;28;20063;-63
2022/02/04 14:03:17;;;;;;;1.02;0.30;;;16.20;66.60;;;;;;4173064;28;20077;-60
2022/02/04 14:05:48;;;;;;;1.90;0.40;;;16.20;66.00;;;;;;4178424;28;20041;-60
2022/02/04 14:08:15;;;;;;;2.05;0.47;;;16.10;67.50;;;;;;4189250;28;20075;-60
2022/02/04 14:10:49;;;;;;;1.83;0.35;;;16.00;67.90;;;;;;4187054;28;20057;-60
2022/02/04 14:13:13;;;;;;;2.08;0.20;;;15.90;68.00;;;;;;4183618;28;20134;-60
2022/02/04 14:15:37;;;;;;;1.10;0.60;;;15.80;68.30;;;;;;4175891;28;20076;-60
2022/02/04 14:18:05;;;;;;;1.38;0.63;;;15.80;68.70;;;;;;4175614;28;20045;-60
2022/02/04 14:20:29;;;;;;;0.22;0.20;;;15.70;69.10;;;;;;4188315;28;20044;-60
2022/02/04 14:22:51;;;;;;;0.35;0.35;;;15.70;69.10;;;;;;4180343;28;20049;-60
2022/02/04 14:25:13;;;;;;;1.23;0.20;;;15.60;69.10;;;;;;4185271;28;20052;-60
2022/02/04 14:27:35;;;;;;;0.77;0.20;;;15.60;69.60;;;;;;4179827;28;20060;-60
2022/02/04 14:30:02;;;;;;;0.45;0.40;;;15.50;70.50;;;;;;4182346;28;20511;-60
2022/02/04 14:32:28;;;;;;;1.80;0.40;;;15.50;69.90;;;;;;4175582;28;20048;-61
2022/02/04 14:49:13;;;;;;;0.50;0.20;;;15.40;70.00;;;;;;4181739;28;20063;-60
2022/02/04 14:51:43;;;;;;;2.80;0.30;;;15.20;71.40;;;;;;4175074;28;20173;-60
2022/02/04 14:54:13;;;;;;;0.73;0.52;;;15.20;71.70;;;;;;4165819;28;20452;-60
2022/02/04 15:00:04;;;;;;;;;;;15.40;71.30;;;;;;4159514;28;20095;-61
2022/02/04 15:02:13;;;;;;;3.45;2.10;;;15.50;71.30;;;;;;4168826;28;19925;-60
2022/02/04 15:04:41;;;;;;;4.70;0.85;;;15.50;71.40;;;;;;4161349;28;20136;-60
2022/02/04 15:07:05;;;;;;;1.33;0.30;;;15.50;71.30;;;;;;4160583;28;20049;-60
2022/02/04 15:09:29;;;;;;;1.05;0.40;;;15.50;71.30;;;;;;4177034;28;20072;-60
2022/02/04 15:11:51;;;;;;;1.35;0.30;;;15.50;70.90;;;;;;4176595;28;20075;-61
2022/02/04 15:14:15;;;;;;;0.43;0.22;;;15.50;71.10;;;;;;4176698;28;20136;-60
2022/02/04 15:16:38;;;;;;;1.65;0.43;;;15.50;71.10;;;;;;4159151;28;20084;-60
2022/02/04 15:19:01;;;;;;;1.25;0.47;;;15.50;71.20;;;;;;4162030;28;20049;-60
2022/02/04 15:21:24;;;;;;;0.40;0.20;;;15.50;71.50;;;;;;4176873;28;20060;-60
2022/02/04 15:23:49;;;;;;;1.15;0.32;;;15.60;71.60;;;;;;4175813;28;20744;-60
2022/02/04 15:26:14;;;;;;;0.45;0.28;;;15.70;71.60;;;;;;4176917;28;20053;-60
2022/02/04 15:28:42;;;;;;;0.57;0.28;;;15.70;71.20;;;;;;4176863;28;20068;-60
2022/02/04 15:31:15;;;;;;;0.55;0.30;;;15.80;70.70;;;;;;4176519;28;20060;-59
2022/02/04 15:33:38;;;;;;;0.70;0.22;;;15.90;70.40;;;;;;4161311;28;20445;-59
2022/02/04 15:36:00;;;;;;;1.85;0.30;;;15.90;69.00;;;;;;4176816;28;20045;-60
2022/02/04 15:38:24;;;;;;;2.05;0.52;;;15.90;69.50;;;;;;4176428;28;20195;-57
2022/02/04 15:40:47;;;;;;;1.77;0.40;;;15.90;69.80;;;;;;4160012;28;20060;-60
2022/02/04 15:43:11;;;;;;;3.40;0.50;;;15.90;70.20;;;;;;4176637;28;20128;-57
2022/02/04 15:46:06;;;;;;;2.60;0.57;;;15.80;70.40;;;;;;4176704;28;20412;-60
2022/02/04 15:48:40;;;;;;;0.60;0.28;;;15.80;70.90;;;;;;4176207;28;20053;-60
2022/02/04 15:51:15;;;;;;;0.38;0.38;;;15.90;71.10;;;;;;4176175;28;20450;-60
2022/02/04 15:53:51;;;;;;;1.08;0.60;;;16.30;70.10;;;;;;4159035;28;20050;-60
2022/02/04 15:56:27;;;;;;;1.50;0.38;;;16.80;67.80;;;;;;4159713;28;20141;-60
2022/02/04 15:59:07;;;;;;;0.88;0.32;;;17.50;65.30;;;;;;4175904;28;20578;-60
2022/02/04 16:01:46;;;;;;;0.35;0.30;;;18.20;62.80;;;;;;4160293;28;20052;-61
2022/02/04 16:04:24;;;;;;;1.05;0.60;;;18.80;60.30;;;;;;4159302;28;20056;-61
2022/02/04 16:06:47;;;;;;;0.88;0.40;;;19.40;58.50;;;;;;4159720;28;20049;-58
2022/02/04 16:09:09;;;;;;;1.27;0.50;;;19.90;57.10;;;;;;4170096;28;20551;-61
2022/02/04 16:11:38;;;;;;;1.08;0.60;;;20.20;56.20;;;;;;4175881;28;20423;-61
2022/02/04 16:14:11;;;;;;;1.90;0.60;;;20.30;56.30;;;;;;4174478;28;20057;-61
2022/02/04 16:16:38;;;;;;;2.88;0.88;;;20.40;55.30;;;;;;4173576;28;20183;-60
2022/02/04 16:19:08;;;;;;;1.90;0.40;;;20.40;55.30;;;;;;4170929;28;20053;-62
2022/02/04 16:21:39;;;;;;;0.98;0.47;;;20.30;55.60;;;;;;4159431;28;20424;-61
2022/02/04 16:24:17;;;;;;;1.48;0.40;;;20.10;56.10;;;;;;4174832;28;20088;-61
2022/02/04 16:26:52;;;;;;;1.00;0.55;;;19.90;56.70;;;;;;4175671;28;20057;-60
2022/02/04 16:29:16;;;;;;;0.93;0.50;;;19.60;57.40;;;;;;4174843;28;20041;-61
2022/02/04 16:31:38;;;;;;;0.88;0.30;;;19.50;57.90;;;;;;4175848;28;20451;-61
2022/02/04 16:34:05;;;;;;;3.35;0.93;;;19.40;58.20;;;;;;4175125;28;20132;-61
2022/02/04 16:36:49;;;;;;;3.22;0.70;;;19.30;58.50;;;;;;4175567;28;20912;-60
2022/02/04 16:39:12;;;;;;;1.08;0.60;;;19.20;59.80;;;;;;4175609;28;20116;-61
2022/02/04 16:41:47;;;;;;;1.33;0.52;;;19.10;59.40;;;;;;4175955;28;20053;-61
2022/02/04 16:44:09;;;;;;;2.00;0.82;;;19.00;59.50;;;;;;4156327;28;20477;-60
2022/02/04 16:46:33;;;;;;;2.45;0.63;;;19.00;59.60;;;;;;4175360;28;20813;-60
2022/02/04 16:48:56;;;;;;;4.05;0.93;;;19.10;59.60;;;;;;4158955;28;20042;-61